Time;durP1;ratioP1;P1;durP2;ratioP2;P2;SDS_P1;SDS_P2;PMS_P1;PMS_P2;Temp;Humidity;BMP_temperature;BMP_pressure;BME280_temperature;BME280_humidity;BME280_pressure;Samples;Min_cycle;Max_cycle;Signal;HPM_P1;HPM_P2
2022/07/22 00:01:28;;;;;;;22.50;10.40;;;16.80;99.90;;;;;;5071990;28;20456;-72
2022/07/22 00:03:54;;;;;;;15.33;10.00;;;16.80;99.90;;;;;;5073586;28;20392;-74
2022/07/22 00:06:19;;;;;;;22.45;10.27;;;16.80;99.90;;;;;;5073393;28;20379;-74
2022/07/22 00:08:45;;;;;;;22.38;10.95;;;16.70;99.90;;;;;;5073348;28;20380;-72
2022/07/22 00:11:10;;;;;;;23.60;12.40;;;16.60;99.90;;;;;;5073052;28;20890;-73
2022/07/22 00:13:36;;;;;;;24.80;12.90;;;16.60;99.90;;;;;;5073531;28;20432;-72
2022/07/22 00:16:02;;;;;;;24.93;12.43;;;16.60;99.90;;;;;;5073351;28;20387;-73
2022/07/22 00:18:28;;;;;;;21.75;13.13;;;16.60;99.90;;;;;;5073544;28;20383;-73
2022/07/22 00:20:54;;;;;;;24.73;13.50;;;16.60;99.90;;;;;;5073091;28;20891;-73
2022/07/22 00:23:19;;;;;;;27.50;14.35;;;16.60;99.90;;;;;;5074890;28;20418;-74
2022/07/22 00:25:45;;;;;;;23.87;12.57;;;16.60;99.90;;;;;;5075671;28;20459;-74
2022/07/22 00:28:10;;;;;;;23.03;13.90;;;16.60;99.90;;;;;;5075112;28;20383;-73
2022/07/22 00:30:36;;;;;;;27.13;14.20;;;16.60;99.90;;;;;;5073025;28;20388;-73
2022/07/22 00:33:02;;;;;;;28.65;16.13;;;16.50;99.90;;;;;;5072258;28;20482;-73
2022/07/22 00:35:28;;;;;;;27.98;14.63;;;16.60;99.90;;;;;;5072861;28;20444;-74
2022/07/22 00:37:53;;;;;;;26.67;15.40;;;16.60;99.90;;;;;;5074286;28;20391;-74
2022/07/22 00:40:19;;;;;;;31.17;14.50;;;16.70;99.90;;;;;;5075390;28;20384;-74
2022/07/22 00:42:44;;;;;;;39.10;14.82;;;16.60;99.90;;;;;;5074921;28;20431;-75
2022/07/22 00:45:11;;;;;;;28.90;15.23;;;16.50;99.90;;;;;;5074269;28;20391;-73
2022/07/22 00:47:37;;;;;;;25.63;13.48;;;16.40;99.90;;;;;;5072622;28;20740;-73
2022/07/22 00:50:04;;;;;;;32.25;15.25;;;16.40;99.90;;;;;;5072909;28;20426;-74
2022/07/22 00:52:31;;;;;;;30.05;15.15;;;16.40;99.90;;;;;;5073965;28;20387;-74
2022/07/22 00:54:58;;;;;;;31.07;15.70;;;16.40;99.90;;;;;;5074132;28;20453;-75
2022/07/22 00:57:24;;;;;;;31.33;15.07;;;16.40;99.90;;;;;;5072721;28;20411;-74
2022/07/22 00:59:49;;;;;;;27.70;15.80;;;16.40;99.90;;;;;;5072459;28;20383;-74
2022/07/22 01:02:15;;;;;;;32.37;15.90;;;16.50;99.90;;;;;;5071977;28;20392;-74
2022/07/22 01:04:41;;;;;;;32.53;14.90;;;16.50;99.90;;;;;;5072406;28;20793;-74
2022/07/22 01:07:06;;;;;;;30.20;14.05;;;16.40;99.90;;;;;;5072385;28;20860;-73
2022/07/22 01:09:32;;;;;;;25.17;15.07;;;16.40;99.90;;;;;;5070842;28;20856;-73
2022/07/22 01:11:58;;;;;;;31.50;15.43;;;16.40;99.90;;;;;;5071645;28;20383;-73
2022/07/22 01:14:24;;;;;;;33.43;15.40;;;16.40;99.90;;;;;;5071869;28;20380;-73
2022/07/22 01:16:49;;;;;;;30.40;15.50;;;16.50;99.90;;;;;;5072195;28;20436;-73
2022/07/22 01:19:15;;;;;;;28.05;15.23;;;16.40;99.90;;;;;;5070704;28;20430;-74
2022/07/22 01:21:41;;;;;;;36.38;16.98;;;16.40;99.90;;;;;;5071678;28;20912;-73
2022/07/22 01:24:07;;;;;;;34.10;16.90;;;16.40;99.90;;;;;;5071825;28;20749;-74
2022/07/22 01:26:33;;;;;;;36.47;16.40;;;16.50;99.90;;;;;;5071899;28;20453;-73
2022/07/22 01:28:59;;;;;;;33.67;17.02;;;16.50;99.90;;;;;;5071682;28;20402;-73
2022/07/22 01:31:24;;;;;;;37.83;17.47;;;16.50;99.90;;;;;;5071534;28;20487;-73
2022/07/22 01:33:50;;;;;;;30.97;17.77;;;16.50;99.90;;;;;;5071736;28;20753;-73
2022/07/22 01:36:15;;;;;;;27.38;16.27;;;16.60;99.90;;;;;;5071708;28;20842;-73
2022/07/22 01:38:41;;;;;;;31.77;18.15;;;16.60;99.90;;;;;;5071427;28;20486;-73
2022/07/22 01:41:07;;;;;;;37.27;17.10;;;16.60;99.90;;;;;;5071302;28;20403;-73
2022/07/22 01:43:32;;;;;;;31.97;17.50;;;16.60;99.90;;;;;;5071636;28;20853;-73
2022/07/22 01:45:58;;;;;;;36.90;18.03;;;16.60;99.90;;;;;;5070815;28;20804;-74
2022/07/22 01:48:24;;;;;;;30.40;16.33;;;16.70;99.90;;;;;;5071665;28;20949;-73
2022/07/22 01:50:50;;;;;;;35.70;17.93;;;16.70;99.90;;;;;;5071408;28;20384;-75
2022/07/22 01:53:16;;;;;;;34.60;18.23;;;16.60;99.90;;;;;;5071102;28;20429;-73
2022/07/22 01:55:42;;;;;;;32.58;17.80;;;16.60;99.90;;;;;;5071306;28;20388;-74
2022/07/22 01:58:08;;;;;;;30.55;17.05;;;16.70;99.90;;;;;;5071144;28;20403;-73
2022/07/22 02:00:34;;;;;;;39.72;17.75;;;16.60;99.90;;;;;;5071475;28;20466;-73
2022/07/22 02:03:00;;;;;;;32.17;17.57;;;16.60;99.90;;;;;;5071376;28;20395;-73
2022/07/22 02:05:26;;;;;;;32.38;16.52;;;16.70;99.90;;;;;;5072287;28;20386;-73
2022/07/22 02:07:52;;;;;;;35.65;17.70;;;16.70;99.90;;;;;;5072396;28;20376;-73
2022/07/22 02:10:17;;;;;;;33.63;17.23;;;16.60;99.90;;;;;;5073154;28;20718;-73
2022/07/22 02:12:43;;;;;;;30.25;17.50;;;16.60;99.90;;;;;;5077013;28;20440;-74
2022/07/22 02:15:12;;;;;;;37.80;18.70;;;16.70;99.90;;;;;;5078437;28;20392;-74
2022/07/22 02:17:38;;;;;;;39.78;18.08;;;16.60;99.90;;;;;;5076239;28;20391;-75
2022/07/22 02:20:04;;;;;;;33.38;17.92;;;16.70;99.90;;;;;;5073071;28;20876;-75
2022/07/22 02:22:29;;;;;;;30.42;19.20;;;16.70;99.90;;;;;;5071294;28;20760;-75
2022/07/22 02:24:55;;;;;;;31.67;17.98;;;16.70;99.90;;;;;;5071191;28;20380;-72
2022/07/22 02:27:20;;;;;;;33.55;16.48;;;16.70;99.90;;;;;;5069452;28;20383;-74
2022/07/22 02:29:46;;;;;;;31.30;15.20;;;16.70;99.90;;;;;;5070838;28;20926;-74
2022/07/22 02:32:12;;;;;;;27.00;15.90;;;16.70;99.90;;;;;;5070669;28;20441;-73
2022/07/22 02:34:37;;;;;;;24.77;13.20;;;16.70;99.90;;;;;;5071099;28;20383;-73
2022/07/22 02:37:03;;;;;;;23.98;12.82;;;16.70;99.90;;;;;;5070744;28;20402;-74
2022/07/22 02:39:29;;;;;;;23.13;12.77;;;16.60;99.90;;;;;;5070616;28;20396;-73
2022/07/22 02:41:54;;;;;;;19.42;11.73;;;16.60;99.90;;;;;;5070508;28;20433;-74
2022/07/22 02:44:20;;;;;;;19.00;12.73;;;16.50;99.90;;;;;;5069479;28;20392;-74
2022/07/22 02:46:45;;;;;;;26.97;14.83;;;16.50;99.90;;;;;;5070825;28;20828;-74
2022/07/22 02:49:11;;;;;;;27.07;14.77;;;16.50;99.90;;;;;;5070370;28;20391;-74
2022/07/22 02:51:37;;;;;;;30.20;16.30;;;16.50;99.90;;;;;;5070431;28;20496;-74
2022/07/22 02:54:03;;;;;;;29.50;16.30;;;16.50;99.90;;;;;;5070596;28;20391;-73
2022/07/22 02:56:28;;;;;;;30.50;15.88;;;16.50;99.90;;;;;;5072025;28;20388;-73
2022/07/22 02:58:54;;;;;;;34.80;15.90;;;16.50;99.90;;;;;;5074873;28;20456;-73
2022/07/22 03:01:20;;;;;;;24.95;16.00;;;16.50;99.90;;;;;;5074689;28;20402;-74
2022/07/22 03:03:45;;;;;;;25.77;16.58;;;16.50;99.90;;;;;;5074706;28;20383;-73
2022/07/22 03:06:11;;;;;;;30.15;16.70;;;16.50;99.90;;;;;;5074473;28;20741;-73
2022/07/22 03:08:38;;;;;;;29.67;16.02;;;16.50;99.90;;;;;;5074461;28;20384;-74
2022/07/22 03:11:04;;;;;;;31.67;17.10;;;16.40;99.90;;;;;;5074469;28;20391;-74
2022/07/22 03:13:29;;;;;;;32.90;18.73;;;16.40;99.90;;;;;;5074482;28;20390;-74
2022/07/22 03:15:55;;;;;;;33.07;19.03;;;16.30;99.90;;;;;;5074513;28;20470;-74
2022/07/22 03:18:20;;;;;;;32.60;19.27;;;16.40;99.90;;;;;;5074289;28;20397;-74
2022/07/22 03:20:46;;;;;;;33.78;19.70;;;16.40;99.90;;;;;;5074289;28;20387;-73
2022/07/22 03:23:12;;;;;;;39.58;20.25;;;16.40;99.90;;;;;;5074387;28;20953;-75
2022/07/22 03:25:38;;;;;;;37.87;21.40;;;16.30;99.90;;;;;;5074388;28;20376;-75
2022/07/22 03:28:04;;;;;;;41.90;21.60;;;16.40;99.90;;;;;;5074175;28;20433;-76
2022/07/22 03:30:30;;;;;;;40.28;21.42;;;16.30;99.90;;;;;;5074238;28;20379;-73
2022/07/22 03:32:55;;;;;;;35.42;19.70;;;16.40;99.90;;;;;;5073879;28;20391;-73
2022/07/22 03:35:21;;;;;;;35.47;19.75;;;16.30;99.90;;;;;;5073849;28;20391;-73
2022/07/22 03:37:47;;;;;;;34.70;19.90;;;16.40;99.90;;;;;;5073832;28;20387;-74
2022/07/22 03:40:12;;;;;;;37.13;19.80;;;16.40;99.90;;;;;;5073759;28;20392;-75
2022/07/22 03:42:38;;;;;;;38.07;20.10;;;16.50;99.90;;;;;;5073597;28;20595;-74
2022/07/22 03:45:04;;;;;;;32.05;17.42;;;16.40;99.90;;;;;;5073834;28;20388;-74
2022/07/22 03:47:29;;;;;;;35.40;16.75;;;16.50;99.90;;;;;;5073631;28;20437;-74
2022/07/22 03:49:56;;;;;;;29.50;15.40;;;16.40;99.90;;;;;;5073835;28;20388;-73
2022/07/22 03:52:22;;;;;;;35.22;15.85;;;16.50;99.90;;;;;;5073679;28;20387;-74
2022/07/22 03:54:47;;;;;;;32.60;16.10;;;16.50;99.90;;;;;;5073777;28;20385;-73
2022/07/22 03:57:13;;;;;;;33.58;17.63;;;16.50;99.90;;;;;;5073605;28;20392;-74
2022/07/22 03:59:39;;;;;;;37.78;17.80;;;16.50;99.90;;;;;;5073516;28;20386;-75
2022/07/22 04:02:04;;;;;;;34.27;17.77;;;16.50;99.90;;;;;;5073368;28;20776;-74
2022/07/22 04:04:30;;;;;;;34.73;16.57;;;16.50;99.90;;;;;;5073828;28;20732;-74
2022/07/22 04:06:56;;;;;;;25.20;14.63;;;16.50;99.90;;;;;;5076545;28;20796;-75
2022/07/22 04:09:22;;;;;;;25.13;14.70;;;16.50;99.90;;;;;;5075979;28;20372;-73
2022/07/22 04:11:47;;;;;;;27.52;15.30;;;16.60;99.90;;;;;;5077068;28;20883;-74
2022/07/22 04:14:13;;;;;;;27.97;15.03;;;16.60;99.90;;;;;;5076857;28;20467;-73
2022/07/22 04:16:38;;;;;;;27.17;13.93;;;16.60;99.90;;;;;;5075887;28;20721;-73
2022/07/22 04:19:05;;;;;;;25.23;14.20;;;16.60;99.90;;;;;;5075731;28;20392;-74
2022/07/22 04:21:30;;;;;;;26.30;14.20;;;16.60;99.90;;;;;;5074559;28;20903;-74
2022/07/22 04:23:56;;;;;;;25.00;14.32;;;16.70;99.90;;;;;;5078573;28;20392;-73
2022/07/22 04:26:22;;;;;;;24.08;12.70;;;16.60;99.90;;;;;;5076233;28;20388;-73
2022/07/22 04:28:48;;;;;;;23.13;12.48;;;16.70;99.90;;;;;;5074721;28;20388;-73
2022/07/22 04:31:13;;;;;;;17.15;10.35;;;16.70;99.90;;;;;;5074568;28;20387;-73
2022/07/22 04:33:39;;;;;;;24.10;10.40;;;16.80;99.90;;;;;;5071992;28;20756;-73
2022/07/22 04:36:05;;;;;;;20.77;9.67;;;16.80;99.90;;;;;;5073070;28;20466;-73
2022/07/22 04:38:30;;;;;;;19.80;10.30;;;16.70;99.90;;;;;;5073593;28;20865;-73
2022/07/22 04:40:59;;;;;;;18.40;8.43;;;16.70;99.90;;;;;;5072741;28;20376;-73
2022/07/22 04:43:30;;;;;;;17.25;8.07;;;16.80;99.90;;;;;;5073401;28;20384;-72
2022/07/22 04:45:56;;;;;;;14.18;7.53;;;16.90;99.90;;;;;;5072955;28;20372;-74
2022/07/22 04:48:21;;;;;;;15.60;7.10;;;17.00;99.70;;;;;;5072430;28;20394;-73
2022/07/22 04:50:47;;;;;;;13.50;7.17;;;17.00;99.90;;;;;;5072644;28;20380;-74
2022/07/22 04:53:13;;;;;;;12.40;6.70;;;17.00;99.90;;;;;;5072373;28;20376;-73
2022/07/22 04:55:38;;;;;;;10.88;6.10;;;17.00;99.90;;;;;;5072560;28;20748;-73
2022/07/22 04:58:04;;;;;;;12.10;6.00;;;17.00;99.90;;;;;;5073041;28;20876;-74
2022/07/22 05:00:29;;;;;;;14.93;5.87;;;17.10;95.40;;;;;;5073823;28;20792;-73
2022/07/22 05:02:55;;;;;;;16.40;5.93;;;17.10;97.10;;;;;;5075349;28;20942;-73
2022/07/22 05:05:21;;;;;;;15.98;6.22;;;17.10;99.90;;;;;;5075338;28;20402;-74
2022/07/22 05:07:47;;;;;;;12.95;6.00;;;17.20;93.70;;;;;;5074297;28;20437;-74
2022/07/22 05:10:13;;;;;;;11.82;6.25;;;17.20;94.60;;;;;;5073434;28;20387;-73
2022/07/22 05:12:39;;;;;;;14.90;7.22;;;17.10;96.70;;;;;;5072410;28;20422;-72
2022/07/22 05:15:05;;;;;;;15.37;6.93;;;17.10;99.90;;;;;;5072121;28;20441;-73
2022/07/22 05:17:31;;;;;;;15.10;6.03;;;17.20;97.30;;;;;;5072134;28;20761;-72
2022/07/22 05:19:56;;;;;;;13.38;7.10;;;17.20;98.00;;;;;;5072315;28;20376;-72
2022/07/22 05:22:22;;;;;;;13.20;5.97;;;17.40;96.30;;;;;;5072667;28;20392;-74
2022/07/22 05:24:47;;;;;;;11.95;4.65;;;17.40;96.40;;;;;;5073494;28;20972;-73
2022/07/22 05:27:13;;;;;;;13.03;5.20;;;17.60;84.30;;;;;;5073188;28;20423;-74
2022/07/22 05:29:38;;;;;;;9.25;5.40;;;17.70;83.90;;;;;;5073719;28;20441;-75
2022/07/22 05:32:04;;;;;;;12.52;4.80;;;17.70;84.60;;;;;;5072640;28;20384;-73
2022/07/22 05:34:30;;;;;;;13.48;4.57;;;17.80;85.30;;;;;;5072333;28;20391;-73
2022/07/22 05:36:56;;;;;;;13.25;5.60;;;17.80;84.20;;;;;;5071708;28;20389;-73
2022/07/22 05:39:21;;;;;;;13.53;5.30;;;17.70;88.70;;;;;;5071552;28;20379;-73
2022/07/22 05:41:47;;;;;;;9.20;5.07;;;17.70;90.40;;;;;;5071285;28;20923;-73
2022/07/22 05:44:13;;;;;;;10.77;4.47;;;17.70;89.20;;;;;;5071506;28;20408;-73
2022/07/22 05:46:38;;;;;;;8.38;4.65;;;17.80;83.00;;;;;;5071414;28;20462;-73
2022/07/22 05:49:04;;;;;;;12.30;4.63;;;17.80;82.20;;;;;;5073103;28;20443;-74
2022/07/22 05:51:30;;;;;;;11.33;5.07;;;17.80;84.10;;;;;;5073818;28;20392;-74
2022/07/22 05:53:55;;;;;;;15.73;5.30;;;17.90;83.50;;;;;;5073221;28;20455;-74
2022/07/22 05:56:21;;;;;;;10.55;4.30;;;18.00;80.20;;;;;;5071352;28;20877;-73
2022/07/22 05:58:46;;;;;;;11.27;4.55;;;18.00;79.40;;;;;;5071382;28;20453;-73
2022/07/22 06:01:12;;;;;;;13.30;4.90;;;17.90;81.30;;;;;;5070893;28;20449;-73
2022/07/22 06:03:38;;;;;;;9.27;4.87;;;18.00;80.90;;;;;;5071669;28;20459;-73
2022/07/22 06:06:05;;;;;;;10.63;4.30;;;18.00;82.80;;;;;;5071738;28;20383;-73
2022/07/22 06:08:31;;;;;;;14.73;4.70;;;18.00;81.10;;;;;;5071022;28;20376;-73
2022/07/22 06:10:58;;;;;;;13.52;5.30;;;18.10;77.70;;;;;;5071027;28;20452;-74
2022/07/22 06:13:23;;;;;;;12.95;5.00;;;18.10;74.30;;;;;;5071116;28;20402;-73
2022/07/22 06:15:49;;;;;;;11.45;4.97;;;18.00;76.30;;;;;;5071128;28;20888;-73
2022/07/22 06:18:14;;;;;;;12.85;4.60;;;18.00;80.50;;;;;;5070723;28;20872;-73
2022/07/22 06:20:40;;;;;;;11.70;4.40;;;18.00;81.00;;;;;;5070926;28;20395;-73
2022/07/22 06:23:06;;;;;;;14.70;4.20;;;18.10;79.10;;;;;;5070553;28;20411;-73
2022/07/22 06:25:32;;;;;;;12.07;4.60;;;18.30;73.00;;;;;;5070979;28;20390;-73
2022/07/22 06:27:57;;;;;;;11.50;4.33;;;18.40;71.30;;;;;;5070837;28;20419;-71
2022/07/22 06:30:23;;;;;;;14.13;4.90;;;18.40;72.90;;;;;;5072412;28;20391;-74
2022/07/22 06:32:48;;;;;;;12.27;5.07;;;18.20;72.70;;;;;;5072586;28;20539;-73
2022/07/22 06:35:14;;;;;;;25.27;14.13;;;18.10;77.10;;;;;;5070597;28;20379;-72
2022/07/22 06:37:39;;;;;;;17.75;5.43;;;18.30;70.10;;;;;;5070500;28;20434;-73
2022/07/22 06:40:06;;;;;;;18.98;7.75;;;18.60;65.80;;;;;;5070697;28;20395;-73
2022/07/22 06:42:31;;;;;;;58.13;37.10;;;18.70;66.40;;;;;;5071435;28;20403;-72
2022/07/22 06:44:57;;;;;;;28.95;19.02;;;18.70;68.10;;;;;;5070564;28;20373;-73
2022/07/22 06:47:23;;;;;;;34.50;20.23;;;18.70;71.10;;;;;;5071031;28;20380;-72
2022/07/22 06:49:48;;;;;;;11.50;4.63;;;18.80;67.90;;;;;;5070704;28;20458;-74
2022/07/22 06:52:14;;;;;;;37.50;20.00;;;19.10;63.20;;;;;;5070694;28;20471;-74
2022/07/22 06:54:39;;;;;;;19.40;9.80;;;19.10;66.00;;;;;;5070606;28;20737;-74
2022/07/22 06:57:05;;;;;;;13.50;5.10;;;19.10;66.70;;;;;;5070249;28;20387;-74
2022/07/22 06:59:30;;;;;;;8.90;4.50;;;19.20;63.00;;;;;;5070731;28;20376;-73
2022/07/22 07:01:56;;;;;;;11.30;4.37;;;19.20;58.50;;;;;;5070144;28;20926;-74
2022/07/22 07:04:24;;;;;;;25.50;12.60;;;19.20;59.40;;;;;;5070888;28;20388;-74
2022/07/22 07:06:50;;;;;;;21.25;9.15;;;19.10;64.40;;;;;;5073142;28;20410;-74
2022/07/22 07:09:16;;;;;;;25.57;14.63;;;19.10;67.90;;;;;;5071968;28;20384;-74
2022/07/22 07:11:41;;;;;;;22.93;14.13;;;19.10;68.70;;;;;;5071543;28;20376;-74
2022/07/22 07:14:07;;;;;;;28.42;18.30;;;19.20;68.20;;;;;;5070655;28;20392;-75
2022/07/22 07:16:32;;;;;;;53.27;33.03;;;19.20;70.00;;;;;;5070480;28;20387;-73
2022/07/22 07:18:58;;;;;;;35.67;23.00;;;19.20;66.90;;;;;;5070106;28;20427;-73
2022/07/22 07:21:23;;;;;;;23.97;13.87;;;19.30;65.70;;;;;;5070054;28;20400;-73
2022/07/22 07:23:49;;;;;;;18.77;12.93;;;19.40;65.20;;;;;;5070294;28;20892;-72
2022/07/22 07:26:14;;;;;;;19.83;13.38;;;19.40;63.90;;;;;;5070051;28;20375;-73
2022/07/22 07:28:40;;;;;;;21.13;8.17;;;19.40;65.20;;;;;;5070123;28;20391;-73
2022/07/22 07:31:06;;;;;;;26.77;11.13;;;19.30;62.60;;;;;;5070055;28;20379;-73
2022/07/22 07:33:31;;;;;;;21.35;11.05;;;19.40;65.50;;;;;;5070125;28;20561;-72
2022/07/22 07:35:57;;;;;;;27.10;11.03;;;19.40;64.50;;;;;;5069775;28;20888;-73
2022/07/22 07:38:22;;;;;;;20.07;9.13;;;19.50;60.30;;;;;;5069837;28;20758;-74
2022/07/22 07:40:48;;;;;;;12.30;6.47;;;19.60;59.70;;;;;;5069901;28;20395;-73
2022/07/22 07:43:14;;;;;;;15.47;6.20;;;19.80;58.10;;;;;;5070370;28;20403;-73
2022/07/22 07:45:39;;;;;;;11.13;5.30;;;19.60;58.50;;;;;;5073649;28;20387;-73
2022/07/22 07:48:06;;;;;;;12.80;5.97;;;19.60;57.70;;;;;;5073985;28;20387;-74
2022/07/22 07:50:31;;;;;;;15.60;6.35;;;19.60;57.80;;;;;;5074180;28;20437;-74
2022/07/22 07:52:57;;;;;;;11.27;6.00;;;19.70;55.90;;;;;;5073762;28;20387;-74
2022/07/22 07:55:24;;;;;;;13.80;6.40;;;19.60;57.90;;;;;;5073870;28;20388;-74
2022/07/22 07:57:49;;;;;;;14.00;6.10;;;19.60;58.40;;;;;;5073856;28;20444;-73
2022/07/22 08:00:17;;;;;;;14.53;6.63;;;19.50;60.20;;;;;;5074261;28;20380;-73
2022/07/22 08:02:43;;;;;;;14.18;6.90;;;19.60;55.90;;;;;;5075243;28;20483;-75
2022/07/22 08:05:09;;;;;;;14.35;6.80;;;19.70;56.30;;;;;;5076538;28;20454;-75
2022/07/22 08:07:35;;;;;;;16.13;7.47;;;19.90;55.50;;;;;;5073766;28;20395;-73
2022/07/22 08:10:01;;;;;;;12.02;8.20;;;20.10;49.90;;;;;;5073735;28;20472;-74
2022/07/22 08:12:27;;;;;;;17.20;8.18;;;20.40;46.00;;;;;;5073147;28;20390;-73
2022/07/22 08:14:53;;;;;;;12.53;7.80;;;20.40;46.90;;;;;;5074354;28;20861;-72
2022/07/22 08:17:18;;;;;;;15.47;8.43;;;20.40;47.80;;;;;;5073356;28;20390;-72
2022/07/22 08:19:47;;;;;;;18.55;10.30;;;20.40;47.90;;;;;;5071549;28;20458;-73
2022/07/22 08:22:12;;;;;;;23.38;10.13;;;20.30;45.00;;;;;;5041180;28;20787;-71
2022/07/22 08:24:38;;;;;;;21.23;10.00;;;20.40;45.40;;;;;;5047278;28;20443;-74
2022/07/22 08:27:04;;;;;;;14.88;9.02;;;20.50;43.70;;;;;;5033282;28;20371;-75
2022/07/22 08:29:29;;;;;;;23.50;9.13;;;20.70;42.30;;;;;;5042611;28;20469;-75
2022/07/22 08:31:55;;;;;;;16.75;8.65;;;20.80;42.70;;;;;;5033042;28;20399;-75
2022/07/22 08:34:20;;;;;;;14.20;7.93;;;21.00;42.40;;;;;;5047377;28;20409;-74
2022/07/22 08:36:46;;;;;;;15.57;8.07;;;20.90;43.10;;;;;;5041691;28;20419;-74
2022/07/22 08:39:11;;;;;;;19.02;8.20;;;20.90;43.70;;;;;;5035207;28;20403;-74
2022/07/22 08:41:39;;;;;;;20.77;13.30;;;20.80;45.10;;;;;;5054843;28;20412;-73
2022/07/22 08:44:07;;;;;;;17.48;10.00;;;20.80;43.10;;;;;;5053848;28;20377;-76
2022/07/22 08:46:33;;;;;;;22.02;11.20;;;20.60;44.00;;;;;;5053325;28;20377;-73
2022/07/22 08:49:01;;;;;;;18.98;8.93;;;20.60;42.50;;;;;;5053122;28;20409;-74
2022/07/22 08:51:27;;;;;;;21.40;10.20;;;20.70;42.30;;;;;;5053167;28;20390;-77
2022/07/22 08:53:54;;;;;;;18.02;10.50;;;20.60;42.50;;;;;;5032915;28;20481;-76
2022/07/22 08:56:20;;;;;;;19.35;10.13;;;20.50;42.40;;;;;;5033314;28;20829;-75
2022/07/22 08:58:45;;;;;;;23.40;14.00;;;20.50;42.00;;;;;;5032644;28;20434;-75
2022/07/22 09:01:15;;;;;;;27.88;14.23;;;20.60;40.40;;;;;;5034036;28;20418;-74
2022/07/22 09:03:52;;;;;;;23.15;13.10;;;20.70;37.10;;;;;;5032809;28;20751;-75
2022/07/22 09:06:19;;;;;;;20.98;11.70;;;20.70;37.40;;;;;;5032390;28;20413;-75
2022/07/22 09:08:52;;;;;;;25.85;13.50;;;20.60;37.90;;;;;;5054113;28;20383;-74
2022/07/22 09:11:20;;;;;;;23.23;12.20;;;20.50;39.90;;;;;;5072268;28;20380;-74
2022/07/22 09:13:46;;;;;;;22.67;13.00;;;20.70;37.00;;;;;;5072534;28;20416;-75
2022/07/22 09:16:11;;;;;;;29.20;13.47;;;20.60;39.30;;;;;;5063042;28;20837;-74
2022/07/22 09:18:51;;;;;;;25.53;13.50;;;20.60;38.70;;;;;;5052669;28;20397;-76
2022/07/22 09:21:17;;;;;;;32.38;14.98;;;20.50;41.40;;;;;;5052890;28;20478;-76
2022/07/22 09:23:43;;;;;;;25.38;13.30;;;20.60;39.20;;;;;;5054995;28;20400;-74
2022/07/22 09:26:29;;;;;;;28.10;14.13;;;20.70;39.10;;;;;;5072063;28;20422;-76
2022/07/22 09:28:56;;;;;;;32.05;15.13;;;20.60;38.30;;;;;;5064581;28;20389;-75
2022/07/22 09:31:36;;;;;;;30.80;16.30;;;20.50;40.80;;;;;;5051865;28;20385;-75
2022/07/22 09:34:04;;;;;;;26.63;14.53;;;20.60;41.20;;;;;;5053836;28;20459;-75
2022/07/22 09:36:30;;;;;;;30.67;14.93;;;20.60;41.20;;;;;;5052771;28;20489;-76
2022/07/22 09:38:56;;;;;;;27.17;14.33;;;20.70;41.70;;;;;;5057288;28;20397;-74
2022/07/22 09:41:22;;;;;;;30.52;14.30;;;20.80;40.20;;;;;;5060509;28;20405;-74
2022/07/22 09:43:49;;;;;;;28.33;14.80;;;20.90;39.20;;;;;;5054407;28;20873;-75
2022/07/22 09:46:15;;;;;;;28.70;14.70;;;21.00;38.60;;;;;;5046825;28;20488;-76
2022/07/22 09:48:42;;;;;;;29.65;14.00;;;21.10;38.40;;;;;;5047890;28;20509;-75
2022/07/22 09:51:09;;;;;;;27.80;14.35;;;21.10;37.90;;;;;;5034573;28;20788;-76
2022/07/22 09:53:34;;;;;;;34.50;15.68;;;21.30;36.40;;;;;;5035873;28;20395;-75
2022/07/22 09:56:02;;;;;;;29.88;15.00;;;21.30;38.10;;;;;;5054779;28;21008;-76
2022/07/22 09:58:28;;;;;;;27.95;14.90;;;21.30;36.80;;;;;;5047964;28;20407;-76
2022/07/22 10:00:58;;;;;;;30.58;15.27;;;21.40;37.80;;;;;;5036144;28;20387;-77
2022/07/22 10:03:31;;;;;;;31.50;15.95;;;21.50;35.30;;;;;;5058112;28;20879;-78
2022/07/22 10:05:58;;;;;;;32.25;16.30;;;21.80;32.80;;;;;;5066723;28;20385;-76
2022/07/22 10:08:29;;;;;;;40.67;17.92;;;22.00;31.80;;;;;;5056991;28;20519;-77
2022/07/22 10:11:00;;;;;;;37.67;16.80;;;22.20;30.50;;;;;;5037395;28;20529;-77
2022/07/22 10:13:26;;;;;;;31.42;16.10;;;22.50;31.10;;;;;;5038119;28;20634;-77
2022/07/22 10:15:54;;;;;;;36.70;20.45;;;22.60;30.50;;;;;;5053734;28;20413;-76
2022/07/22 10:18:21;;;;;;;34.33;18.02;;;22.90;28.90;;;;;;5056242;28;20412;-76
2022/07/22 10:20:46;;;;;;;32.78;17.80;;;23.30;29.30;;;;;;5039623;28;20478;-77
2022/07/22 10:23:14;;;;;;;37.08;19.10;;;23.60;28.80;;;;;;5032362;28;20441;-75
2022/07/22 10:25:55;;;;;;;35.13;18.27;;;23.90;26.00;;;;;;5032649;28;20387;-75
2022/07/22 10:28:22;;;;;;;37.03;18.20;;;24.30;23.00;;;;;;5044202;28;20383;-76
2022/07/22 10:30:48;;;;;;;33.83;18.65;;;24.50;22.40;;;;;;5057965;28;20377;-76
2022/07/22 10:33:21;;;;;;;31.03;19.13;;;24.30;23.70;;;;;;5051232;28;20404;-76
2022/07/22 10:35:57;;;;;;;39.17;20.38;;;24.40;22.00;;;;;;5034823;28;20426;-74
2022/07/22 10:38:24;;;;;;;37.83;20.65;;;24.30;22.00;;;;;;5063442;28;20904;-75
2022/07/22 10:40:53;;;;;;;37.20;21.85;;;24.10;23.30;;;;;;5060817;28;20443;-76
2022/07/22 10:43:31;;;;;;;40.88;21.05;;;24.00;23.60;;;;;;5033240;28;20422;-75
2022/07/22 10:45:59;;;;;;;32.95;19.10;;;24.30;22.30;;;;;;5033908;28;20441;-74
2022/07/22 10:48:46;;;;;;;39.65;21.98;;;24.40;21.60;;;;;;5032979;28;20399;-74
2022/07/22 10:51:20;;;;;;;38.17;20.60;;;24.50;23.00;;;;;;5032492;28;20402;-74
2022/07/22 10:53:51;;;;;;;42.33;22.45;;;24.60;21.70;;;;;;5034261;28;20379;-74
2022/07/22 10:56:29;;;;;;;41.10;22.33;;;24.40;23.00;;;;;;5046153;28;20485;-74
2022/07/22 10:58:54;;;;;;;41.75;22.35;;;24.40;23.60;;;;;;5055900;28;20381;-74
2022/07/22 11:01:24;;;;;;;37.43;21.37;;;24.20;24.70;;;;;;5044172;28;21033;-74
2022/07/22 11:03:50;;;;;;;42.35;21.95;;;24.30;22.70;;;;;;5073508;28;20380;-74
2022/07/22 11:06:24;;;;;;;39.97;22.00;;;24.20;22.90;;;;;;5066150;28;20402;-74
2022/07/22 11:09:00;;;;;;;41.47;23.07;;;24.20;22.80;;;;;;5035995;28;20403;-75
2022/07/22 11:11:41;;;;;;;39.33;22.02;;;24.30;23.70;;;;;;5048657;28;20484;-74
2022/07/22 11:14:12;;;;;;;46.58;22.27;;;24.30;22.10;;;;;;5042361;28;20403;-74
2022/07/22 11:16:39;;;;;;;36.95;20.95;;;24.30;21.90;;;;;;5037153;28;20760;-77
2022/07/22 11:19:04;;;;;;;33.33;19.50;;;24.80;20.30;;;;;;5043326;28;20394;-75
2022/07/22 11:21:32;;;;;;;29.92;18.67;;;24.90;20.60;;;;;;5043592;28;20738;-75
2022/07/22 11:24:04;;;;;;;35.60;20.40;;;25.10;18.70;;;;;;5035094;28;20390;-76
2022/07/22 11:26:46;;;;;;;43.05;21.92;;;25.20;18.90;;;;;;5034952;28;20748;-75
2022/07/22 11:29:28;;;;;;;37.47;21.10;;;25.40;18.80;;;;;;5034650;28;20413;-75
2022/07/22 11:31:58;;;;;;;37.33;22.15;;;25.10;19.10;;;;;;5047001;28;20396;-75
2022/07/22 11:34:25;;;;;;;36.55;20.88;;;25.00;19.40;;;;;;5054626;28;20476;-76
2022/07/22 11:36:53;;;;;;;34.57;19.90;;;25.00;19.40;;;;;;5054743;28;20388;-75
2022/07/22 11:39:25;;;;;;;35.65;20.85;;;25.00;18.10;;;;;;5054379;28;20417;-75
2022/07/22 11:41:52;;;;;;;35.85;21.30;;;25.20;18.90;;;;;;5055102;28;20478;-75
2022/07/22 11:44:27;;;;;;;36.00;22.00;;;25.50;19.00;;;;;;5055239;28;20404;-75
2022/07/22 11:46:58;;;;;;;33.60;18.08;;;25.70;18.90;;;;;;5056134;28;20467;-75
2022/07/22 11:49:24;;;;;;;27.08;16.33;;;25.50;17.40;;;;;;5055044;28;20397;-75
2022/07/22 11:51:51;;;;;;;29.70;17.73;;;25.30;16.80;;;;;;5056188;28;20474;-76
2022/07/22 11:54:17;;;;;;;29.07;17.80;;;25.00;17.60;;;;;;5059777;28;20537;-76
2022/07/22 11:56:42;;;;;;;31.80;16.92;;;24.90;18.90;;;;;;5058283;28;20392;-75
2022/07/22 11:59:12;;;;;;;31.10;18.23;;;25.10;18.00;;;;;;5058513;28;20402;-76
2022/07/22 12:01:40;;;;;;;29.92;16.80;;;25.50;18.00;;;;;;5055204;28;20409;-76
2022/07/22 12:04:08;;;;;;;27.17;17.25;;;25.60;16.40;;;;;;5055879;28;20412;-75
2022/07/22 12:06:37;;;;;;;29.38;16.27;;;25.60;16.40;;;;;;5055386;28;20385;-75
2022/07/22 12:09:10;;;;;;;31.52;16.80;;;24.70;18.40;;;;;;5055819;28;20377;-75
2022/07/22 12:11:37;;;;;;;31.43;18.50;;;24.70;19.10;;;;;;5053800;28;20389;-75
2022/07/22 12:14:12;;;;;;;31.90;16.85;;;25.00;18.10;;;;;;5053969;28;20390;-75
2022/07/22 12:16:38;;;;;;;29.07;17.80;;;25.00;18.30;;;;;;5054186;28;20944;-75
2022/07/22 12:19:10;;;;;;;28.08;17.20;;;25.00;17.50;;;;;;5054806;28;20468;-75
2022/07/22 12:21:51;;;;;;;32.63;18.77;;;25.00;17.40;;;;;;5054295;28;20402;-75
2022/07/22 12:24:29;;;;;;;33.03;18.17;;;25.20;17.70;;;;;;5053962;28;20511;-75
2022/07/22 12:26:56;;;;;;;27.13;17.13;;;25.40;17.20;;;;;;5055311;28;20378;-75
2022/07/22 12:29:24;;;;;;;29.10;15.48;;;25.50;16.80;;;;;;5053882;28;20512;-75